Carlisle, Massachusetts
Current Conditions -  °F | °C
As of 4:56 PM on Sunday 21 Dec 2014 (Local Time) from KBED Reporting Station
Overcast Overcast  
Wind Chill: 27°   Ceiling: 1400
Heat Index: 32°   Visibility: 10mi
Dew Point: 26°   Wind: 5mph
Humidity: 79%   Direction: 20°NNE
Pressure: 30.31"   Gusts: NA
Location:  42.53°N, 71.35°W
Report Text: KBED 212156Z 02004KT 10SM OVC014 00/M03 A3031 RMK AO2 SNE2059 SLP281 P0000 T00001033
Loading
Personal Weather Stations






























Interactive Weather Map New forecast layout! Learn more

10-Day Weather Forecast

Advertisements
Track Severe Weather on mobile